| time (UTC) | temp F | wind direction | speed knots | gust knots | rain 1hr in | rain 24hr in | rain mn in | humidity % | barometer mb |
| 20260509021540 | 58 | 0 | 0.0 | 0.0 | 0.00 | 0.01 | 0.01 | 88 | 1015.2 |
| 20260509020040 | 58 | 0 | 0.0 | 0.9 | 0.00 | 0.01 | 0.01 | 87 | 1015.3 |
| 20260509014539 | 58 | 0 | 0.0 | 0.0 | 0.00 | 0.02 | 0.01 | 87 | 1015.1 |
| 20260509013037 | 59 | 0 | 0.0 | 0.0 | 0.00 | 0.02 | 0.01 | 87 | 1015.1 |
| 20260509011535 | 59 | 0 | 0.0 | 0.0 | 0.00 | 0.02 | 0.01 | 86 | 1015.0 |
| 20260509010033 | 59 | 0 | 0.0 | 0.0 | 0.00 | 0.02 | 0.01 | 86 | 1015.0 |
| 20260509004547 | 59 | 0 | 0.0 | 0.0 | 0.00 | 0.03 | 0.01 | 84 | 1014.8 |
| 20260509003049 | 60 | 0 | 0.0 | 0.0 | 0.00 | 0.03 | 0.01 | 83 | 1014.9 |
| 20260509001538 | 61 | 0 | 0.0 | 0.0 | 0.00 | 0.03 | 0.01 | 81 | 1014.9 |
| 20260509000037 | 62 | 0 | 0.0 | 0.0 | 0.00 | 0.03 | 0.01 | 80 | 1014.7 |
| 20260508234532 | 62 | 0 | 0.0 | 0.0 | 0.00 | 0.04 | 0.01 | 79 | 1014.7 |
| 20260508233033 | 63 | 0 | 0.0 | 0.0 | 0.00 | 0.04 | 0.01 | 78 | 1014.7 |
| 20260508231538 | 64 | 0 | 0.0 | 0.0 | 0.00 | 0.04 | 0.01 | 77 | 1014.7 |
| 20260508230038 | 65 | 0 | 0.0 | 0.9 | 0.00 | 0.04 | 0.01 | 73 | 1015.0 |
| 20260508224549 | 65 | 0 | 0.0 | 0.9 | 0.00 | 0.05 | 0.01 | 72 | 1014.8 |
| 20260508223047 | 66 | 0 | 0.0 | 0.9 | 0.00 | 0.05 | 0.01 | 69 | 1014.6 |
| 20260508221535 | 66 | 0 | 0.0 | 0.9 | 0.00 | 0.05 | 0.01 | 67 | 1014.8 |
| 20260508220048 | 66 | 0 | 0.0 | 0.9 | 0.00 | 0.05 | 0.01 | 66 | 1014.7 |
| 20260508214538 | 67 | 291 | 0.0 | 0.9 | 0.00 | 0.06 | 0.01 | 66 | 1014.8 |
| 20260508213037 | 67 | 0 | 0.0 | 0.9 | 0.00 | 0.06 | 0.01 | 64 | 1014.7 |
| 20260508211536 | 67 | 0 | 0.0 | 1.7 | 0.00 | 0.06 | 0.01 | 60 | 1014.8 |
| 20260508210037 | 68 | 0 | 0.0 | 0.9 | 0.00 | 0.06 | 0.01 | 59 | 1014.8 |
| 20260508204534 | 68 | 0 | 0.0 | 2.6 | 0.00 | 0.09 | 0.01 | 59 | 1014.9 |
| 20260508203042 | 68 | 0 | 0.0 | 2.6 | 0.00 | 0.09 | 0.01 | 58 | 1015.0 |
| 20260508201537 | 69 | 0 | 0.0 | 2.6 | 0.00 | 0.09 | 0.01 | 56 | 1015.3 |
| 20260508200037 | 69 | 0 | 0.0 | 2.6 | 0.00 | 0.09 | 0.01 | 54 | 1015.3 |
| 20260508194539 | 69 | 307 | 0.9 | 2.6 | 0.00 | 0.11 | 0.01 | 53 | 1015.5 |
| 20260508193033 | 69 | 0 | 0.0 | 2.6 | 0.00 | 0.11 | 0.01 | 52 | 1015.8 |
| 20260508191542 | 70 | 299 | 0.0 | 1.7 | 0.00 | 0.11 | 0.01 | 50 | 1016.0 |
| 20260508190037 | 70 | 338 | 0.9 | 3.5 | 0.00 | 0.11 | 0.01 | 52 | 1016.2 |
| 20260508184538 | 70 | 242 | 0.0 | 4.3 | 0.00 | 0.15 | 0.01 | 54 | 1016.3 |
| 20260508183035 | 70 | 0 | 0.0 | 1.7 | 0.00 | 0.15 | 0.01 | 52 | 1016.6 |
| 20260508181539 | 71 | 0 | 0.0 | 3.5 | 0.00 | 0.15 | 0.01 | 53 | 1016.8 |
| 20260508180039 | 69 | 289 | 0.9 | 2.6 | 0.00 | 0.15 | 0.01 | 53 | 1017.0 |
| 20260508174536 | 69 | 0 | 0.0 | 2.6 | 0.00 | 0.19 | 0.01 | 56 | 1017.3 |
| 20260508173037 | 68 | 0 | 0.9 | 3.5 | 0.00 | 0.19 | 0.01 | 49 | 1017.2 |
| 20260508171534 | 68 | 190 | 0.0 | 6.1 | 0.00 | 0.19 | 0.01 | 55 | 1017.3 |
| 20260508170035 | 66 | 0 | 0.0 | 2.6 | 0.00 | 0.19 | 0.01 | 59 | 1017.7 |
| 20260508164535 | 68 | 262 | 1.7 | 7.0 | 0.00 | 0.23 | 0.01 | 53 | 1018.0 |
| 20260508163038 | 66 | 0 | 0.0 | 2.6 | 0.00 | 0.23 | 0.01 | 58 | 1018.2 |
| 20260508161537 | 64 | 96 | 0.0 | 2.6 | 0.00 | 0.23 | 0.01 | 60 | 1018.4 |
| 20260508160039 | 65 | 295 | 0.9 | 3.5 | 0.00 | 0.23 | 0.01 | 55 | 1018.5 |
| 20260508154534 | 66 | 284 | 0.9 | 2.6 | 0.00 | 0.28 | 0.01 | 58 | 1018.4 |
| 20260508153040 | 65 | 0 | 0.9 | 2.6 | 0.00 | 0.28 | 0.01 | 59 | 1019.0 |
| 20260508151538 | 65 | 105 | 0.9 | 2.6 | 0.00 | 0.28 | 0.01 | 59 | 1019.1 |
| 20260508150053 | 64 | 139 | 0.0 | 2.6 | 0.00 | 0.28 | 0.01 | 59 | 1019.0 |
| 20260508144533 | 62 | 0 | 0.0 | 2.6 | 0.00 | 0.32 | 0.01 | 62 | 1018.8 |
| 20260508143043 | 62 | 0 | 0.0 | 3.5 | 0.00 | 0.32 | 0.01 | 64 | 1018.9 |
| 20260508141534 | 61 | 0 | 0.0 | 1.7 | 0.00 | 0.32 | 0.01 | 67 | 1018.9 |
| 20260508140041 | 60 | 277 | 0.0 | 2.6 | 0.00 | 0.32 | 0.01 | 70 | 1019.0 |
| 20260508134539 | 59 | 0 | 0.0 | 0.9 | 0.00 | 0.37 | 0.01 | 72 | 1019.2 |
| 20260508133033 | 58 | 0 | 0.0 | 0.0 | 0.00 | 0.37 | 0.01 | 74 | 1019.0 |
| 20260508131535 | 57 | 0 | 0.0 | 0.0 | 0.00 | 0.37 | 0.01 | 73 | 1019.1 |
| 20260508130034 | 56 | 0 | 0.0 | 0.0 | 0.00 | 0.37 | 0.01 | 78 | 1018.9 |
| 20260508124537 | 53 | 0 | 0.0 | 0.0 | 0.00 | 0.42 | 0.01 | 90 | 1018.7 |
| 20260508123037 | 50 | 0 | 0.0 | 0.0 | 0.00 | 0.42 | 0.01 | 92 | 1018.2 |
| 20260508121537 | 49 | 0 | 0.0 | 0.0 | 0.00 | 0.42 | 0.01 | 91 | 1018.0 |
| 20260508120033 | 48 | 0 | 0.0 | 0.0 | 0.00 | 0.42 | 0.01 | 91 | 1017.8 |
| 20260508114534 | 48 | 0 | 0.0 | 0.0 | 0.00 | 0.48 | 0.01 | 90 | 1017.5 |
| 20260508113040 | 47 | 0 | 0.0 | 0.0 | 0.00 | 0.48 | 0.01 | 90 | 1017.3 |
| 20260508111537 | 47 | 0 | 0.0 | 0.0 | 0.00 | 0.48 | 0.01 | 89 | 1017.0 |
| 20260508110036 | 47 | 0 | 0.0 | 0.0 | 0.00 | 0.48 | 0.01 | 89 | 1016.6 |
| 20260508104537 | 47 | 0 | 0.0 | 0.0 | 0.00 | 0.54 | 0.01 | 89 | 1016.4 |
| 20260508103033 | 48 | 0 | 0.0 | 0.0 | 0.00 | 0.54 | 0.01 | 89 | 1016.1 |
| 20260508101543 | 48 | 0 | 0.0 | 0.0 | 0.00 | 0.54 | 0.01 | 89 | 1016.0 |
| 20260508100038 | 48 | 0 | 0.0 | 0.0 | 0.00 | 0.54 | 0.01 | 89 | 1015.8 |
| 20260508094536 | 48 | 0 | 0.0 | 0.0 | 0.00 | 0.61 | 0.01 | 89 | 1015.7 |
| 20260508093038 | 48 | 0 | 0.0 | 0.0 | 0.00 | 0.61 | 0.01 | 89 | 1015.4 |
| 20260508091536 | 49 | 0 | 0.0 | 0.0 | 0.00 | 0.61 | 0.01 | 89 | 1015.3 |
| 20260508090041 | 49 | 0 | 0.0 | 0.0 | 0.00 | 0.61 | 0.01 | 89 | 1015.1 |
| 20260508084537 | 49 | 0 | 0.0 | 0.0 | 0.00 | 0.68 | 0.01 | 89 | 1015.0 |
| 20260508083045 | 48 | 0 | 0.0 | 0.0 | 0.00 | 0.68 | 0.01 | 89 | 1015.0 |
| 20260508081536 | 49 | 0 | 0.0 | 0.0 | 0.00 | 0.68 | 0.01 | 89 | 1015.1 |
| 20260508080053 | 49 | 0 | 0.0 | 0.0 | 0.00 | 0.68 | 0.01 | 88 | 1015.2 |
| 20260508074539 | 49 | 0 | 0.0 | 0.0 | 0.00 | 0.75 | 0.01 | 88 | 1015.2 |
| 20260508073040 | 49 | 0 | 0.0 | 0.0 | 0.00 | 0.75 | 0.01 | 88 | 1015.4 |
| 20260508071537 | 49 | 0 | 0.0 | 0.0 | 0.00 | 0.75 | 0.01 | 88 | 1015.3 |
| 20260508070037 | 49 | 0 | 0.0 | 0.0 | 0.00 | 0.75 | 0.01 | 88 | 1015.3 |
| 20260508064544 | 49 | 0 | 0.0 | 0.0 | 0.00 | 0.82 | 0.01 | 87 | 1015.1 |
| 20260508063042 | 50 | 0 | 0.0 | 0.0 | 0.00 | 0.82 | 0.01 | 86 | 1015.2 |
| 20260508061542 | 51 | 0 | 0.0 | 0.0 | 0.00 | 0.82 | 0.01 | 86 | 1015.2 |
| 20260508060039 | 51 | 0 | 0.0 | 0.0 | 0.00 | 0.82 | 0.01 | 85 | 1015.3 |
| 20260508054544 | 51 | 0 | 0.0 | 0.0 | 0.00 | 0.91 | 0.01 | 85 | 1015.2 |
| 20260508053040 | 52 | 0 | 0.0 | 0.0 | 0.00 | 0.91 | 0.01 | 84 | 1015.2 |
| 20260508051539 | 53 | 0 | 0.0 | 0.0 | 0.01 | 0.91 | 0.01 | 83 | 1015.3 |
| 20260508050050 | 53 | 0 | 0.0 | 0.0 | 0.01 | 0.91 | 0.01 | 83 | 1015.2 |
| 20260508044535 | 54 | 0 | 0.0 | 0.0 | 0.01 | 0.97 | 0.01 | 82 | 1014.9 |
| 20260508043037 | 54 | 0 | 0.0 | 0.0 | 0.01 | 0.97 | 0.01 | 82 | 1014.8 |
| 20260508041536 | 55 | 0 | 0.0 | 0.0 | 0.00 | 0.96 | 0.00 | 82 | 1014.9 |
| 20260508040049 | 55 | 0 | 0.0 | 0.0 | 0.00 | 0.96 | 0.00 | 82 | 1014.6 |
| 20260508034542 | 56 | 0 | 0.0 | 0.0 | 0.00 | 1.04 | 0.96 | 82 | 1014.5 |
| 20260508033037 | 56 | 0 | 0.0 | 2.6 | 0.00 | 1.04 | 0.96 | 80 | 1014.5 |
| 20260508031534 | 56 | 360 | 0.0 | 1.7 | 0.00 | 1.04 | 0.96 | 81 | 1014.6 |
| 20260508030037 | 57 | 0 | 0.0 | 0.0 | 0.00 | 1.04 | 0.96 | 82 | 1014.6 |
| 20260508024532 | 57 | 0 | 0.0 | 0.9 | 0.01 | 1.16 | 0.96 | 79 | 1014.3 |
| 20260508023039 | 58 | 0 | 0.0 | 0.9 | 0.01 | 1.16 | 0.96 | 79 | 1014.4 |